KDYS/DYS METAR and TAF weather

Enter ICAO airport designator
Station Type Date Time Source
KDYS METAR 2018/06/25 16:56 UTC NOAA

KDYS 251656Z AUTO 16014G24KT 10SM BKN041 30/17 A3000 RMK AO2 SLP106 T03030170 CHINO RWY34 $


Station Type Date Time Source
KDYS Decoded METAR 2018/06/25 16:56 UTC NOAA

Abilene, Dyess Air Force Base, TX, United States (KDYS) 32-25-12N 099-51-25W
Jun 25, 2018 - 12:56 PM EDT / 2018.06.25 1656 UTC
Wind: from the SSE (160 degrees) at 16 MPH (14 KT) gusting to 28 MPH (24 KT):0
Visibility: 10 mile(s):0
Sky conditions: mostly cloudy
Temperature: 86.5 F (30.3 C)
Dew Point: 62.6 F (17.0 C)
Relative Humidity: 44%
Pressure (altimeter): 30 in. Hg (1015 hPa)
ob: KDYS 251656Z AUTO 16014G24KT 10SM BKN041 30/17 A3000 RMK AO2 SLP106 T03030170 CHINO RWY34
cycle: 17

Station Type Date Time Source
KDYS TAF 2018/06/25 16:58 UTC NOAA

TAF
AMD KDYS 251643Z 2516/2622 15012G18KT 9999 BKN050 QNH2990INS
BECMG 2517/2518 18015G25KT 9999 SCT040 QNH2980INS
BECMG 2602/2603 15020G35KT 9999 SKC 520003 QNH2979INS
BECMG 2608/2609 18012KT 9999 SKC QNH2989INS
BECMG 2614/2615 22020G25KT 9999 FEW030 QNH2995INS TX39/2521Z TN24/2611Z


Example: see airport list